Main page
METAR-TAF:

METAR-TAF

Airports :

Erzincan Airport

Erzincan, Turkey

latitude: 39-44N, longitude: 039-30E, elevation: 1156 m

Current weather observation

The report was made 1 hour and 17 minutes ago, at 10:50 UTC
Wind 8 kt from the East/Southeast
Temperature 5°C
Humidity 93%
Pressure 1011 hPa
Visibility 10 km or more
Broken clouds at a height of 3300 ft
Broken clouds at a height of 7000 ft
light rain showers

METAR: LTCD 011050Z 12008KT 9999 -SHRA BKN033 BKN070 05/04 Q1011 NOSIG

Time: 15:07 (12:07 UTC)

Forecast

The report was made 1 hour and 27 minutes ago, at 10:40 UTC
Forecast valid from 01 at 12 UTC to 01 at 21 UTC
Wind 8 kt from the East/Southeast
Visibility 10 km or more
Few clouds at a height of 1000 ft
Broken clouds at a height of 3300 ft
Overcast at a height of 7000 ft
light rain showers
Becoming
from 01 at 14 UTC to 01 at 15 UTC
Scattered clouds at a height of 3500 ft
Broken clouds at a height of 8000 ft

TAF: LTCD 011040Z 0112/0121 12008KT 9999 -SHRA FEW010 BKN033 OVC070 BECMG 0114/0115 SCT035 BKN080

Weather observations and forecasts of more than 4000 airports (METAR and TAF reports).

The available stations are represented by yellow and red dots on the map.

Hover mouse over dot to see the name of the station.

Then click to see weather observations and forecasts.

To change the map : click on the green buttons with a black cross to zoom in, on the green button with a dash to zoom out, or on the green arrows for adjacent maps.


METAR-TAF: